createdAt,value
2022-09-25T00:01:26.551Z,23.40
2022-09-25T00:03:54.948Z,21.70
2022-09-25T00:06:26.490Z,21.60
2022-09-25T00:08:55.529Z,24.30
2022-09-25T00:11:27.904Z,26.70
2022-09-25T00:13:56.994Z,23.70
2022-09-25T00:16:29.237Z,29.30
2022-09-25T00:19:17.281Z,23.80
2022-09-25T00:21:45.779Z,21.30
2022-09-25T00:24:13.866Z,19.90
2022-09-25T00:26:43.328Z,23.00
2022-09-25T00:29:20.604Z,27.00
2022-09-25T00:31:48.625Z,27.70
2022-09-25T00:34:16.745Z,23.10
2022-09-25T00:36:44.803Z,24.80
2022-09-25T00:39:12.954Z,28.20
2022-09-25T00:41:40.915Z,23.70
2022-09-25T00:44:46.157Z,31.50
2022-09-25T00:47:20.045Z,27.00
2022-09-25T00:49:48.147Z,28.50
2022-09-25T00:52:17.032Z,27.30
2022-09-25T00:54:52.354Z,27.10
2022-09-25T00:59:57.557Z,26.60
2022-09-25T01:02:36.870Z,21.20
2022-09-25T01:05:18.271Z,27.10
2022-09-25T01:07:49.417Z,24.10
2022-09-25T01:10:20.765Z,24.00
2022-09-25T01:12:51.127Z,25.00
2022-09-25T01:15:24.718Z,22.80
2022-09-25T01:18:07.668Z,25.80
2022-09-25T01:20:50.874Z,29.10
2022-09-25T01:23:41.310Z,29.50
2022-09-25T01:26:31.512Z,22.90
2022-09-25T01:29:20.354Z,25.70
2022-09-25T01:31:55.768Z,27.00
2022-09-25T01:34:28.859Z,27.80
2022-09-25T01:37:18.899Z,29.10
2022-09-25T01:39:56.899Z,25.30
2022-09-25T01:42:32.729Z,23.70
2022-09-25T01:45:06.306Z,30.10
2022-09-25T01:47:39.536Z,23.60
2022-09-25T01:50:14.278Z,29.40
2022-09-25T01:52:48.394Z,23.40
2022-09-25T01:55:19.609Z,31.90
2022-09-25T01:57:56.063Z,23.00
2022-09-25T02:00:26.064Z,22.30
2022-09-25T02:03:10.425Z,21.70
2022-09-25T02:05:49.851Z,19.90
2022-09-25T02:08:26.176Z,23.50
2022-09-25T02:10:57.892Z,21.10
2022-09-25T02:13:34.719Z,19.30
2022-09-25T02:16:10.591Z,18.70
2022-09-25T02:18:58.085Z,19.40
2022-09-25T02:21:53.169Z,55.00
2022-09-25T02:24:47.265Z,41.80
2022-09-25T02:27:18.531Z,23.80
2022-09-25T02:29:46.536Z,21.50
2022-09-25T02:32:21.955Z,18.10
2022-09-25T02:34:50.069Z,18.40
2022-09-25T02:37:18.820Z,16.00
2022-09-25T02:39:51.397Z,19.40
2022-09-25T02:42:19.341Z,16.00
2022-09-25T02:45:05.973Z,21.00
2022-09-25T02:47:52.575Z,20.50
2022-09-25T02:50:26.477Z,21.50
2022-09-25T02:53:05.998Z,21.20
2022-09-25T02:55:36.854Z,19.90
2022-09-25T02:58:21.936Z,21.30
2022-09-25T03:00:53.516Z,20.00
2022-09-25T03:03:24.622Z,18.40
2022-09-25T03:05:56.654Z,18.10
2022-09-25T03:08:39.570Z,21.00
2022-09-25T03:11:09.154Z,19.50
2022-09-25T03:13:37.677Z,20.10
2022-09-25T03:16:18.854Z,17.20
2022-09-25T03:18:48.183Z,18.80
2022-09-25T03:21:16.303Z,18.70
2022-09-25T03:23:44.303Z,16.60
2022-09-25T03:26:12.291Z,16.60
2022-09-25T03:28:40.727Z,17.50
2022-09-25T03:31:11.817Z,18.90
2022-09-25T03:33:42.314Z,17.60
2022-09-25T03:36:11.637Z,18.50
2022-09-25T03:38:41.517Z,16.20
2022-09-25T03:41:11.076Z,19.20
2022-09-25T03:43:41.283Z,19.70
2022-09-25T03:46:13.921Z,14.00
2022-09-25T03:48:42.745Z,16.80
2022-09-25T03:51:11.209Z,20.00
2022-09-25T03:53:40.272Z,16.70
2022-09-25T03:56:12.168Z,21.10
2022-09-25T03:58:40.359Z,17.20
2022-09-25T04:01:08.698Z,15.80
2022-09-25T04:03:37.694Z,17.60
2022-09-25T04:06:08.074Z,16.20
2022-09-25T04:08:37.057Z,17.20
2022-09-25T04:11:05.687Z,15.90
2022-09-25T04:13:38.855Z,14.20
2022-09-25T04:16:08.348Z,17.30
2022-09-25T04:18:37.148Z,15.50
2022-09-25T04:21:08.607Z,17.60
2022-09-25T04:23:38.085Z,15.10
2022-09-25T04:26:07.847Z,17.10
2022-09-25T04:28:35.946Z,18.90
2022-09-25T04:31:04.779Z,15.40
2022-09-25T04:33:48.346Z,17.60
2022-09-25T04:36:18.452Z,17.70
2022-09-25T04:38:48.242Z,14.60
2022-09-25T04:41:19.762Z,15.30
2022-09-25T04:43:48.381Z,14.70
2022-09-25T04:46:21.770Z,16.00
2022-09-25T04:48:50.580Z,18.00
2022-09-25T04:51:18.736Z,17.20
2022-09-25T04:53:47.414Z,22.20
2022-09-25T04:56:16.773Z,15.60
2022-09-25T04:58:50.424Z,15.60
2022-09-25T05:01:21.213Z,17.90
2022-09-25T05:03:50.608Z,19.70
2022-09-25T05:06:18.861Z,16.20
2022-09-25T05:08:50.400Z,17.80
2022-09-25T05:11:18.927Z,21.00
2022-09-25T05:13:51.482Z,17.00
2022-09-25T05:16:20.283Z,17.30
2022-09-25T05:18:48.826Z,20.90
2022-09-25T05:21:16.939Z,18.40
2022-09-25T05:23:44.910Z,18.40
2022-09-25T05:26:13.317Z,20.50
2022-09-25T05:28:41.305Z,23.20
2022-09-25T05:31:10.217Z,22.30
2022-09-25T05:33:38.248Z,26.30
2022-09-25T05:36:07.865Z,26.70
2022-09-25T05:38:38.412Z,23.30
2022-09-25T05:41:08.778Z,22.30
2022-09-25T05:43:50.407Z,34.70
2022-09-25T05:46:18.492Z,23.00
2022-09-25T05:48:46.883Z,20.40
2022-09-25T05:51:15.670Z,20.80
2022-09-25T05:53:43.693Z,19.70
2022-09-25T05:56:12.105Z,19.90
2022-09-25T05:58:40.010Z,16.50
2022-09-25T06:01:08.109Z,19.60
2022-09-25T06:03:36.310Z,19.80
2022-09-25T06:06:05.433Z,20.50
2022-09-25T06:08:35.890Z,16.10
2022-09-25T06:11:05.891Z,18.40
2022-09-25T06:13:34.921Z,17.60
2022-09-25T06:16:05.873Z,12.60
2022-09-25T06:18:34.208Z,16.90
2022-09-25T06:21:05.175Z,16.60
2022-09-25T06:23:33.798Z,18.50
2022-09-25T06:26:07.173Z,18.20
2022-09-25T06:28:36.609Z,13.30
2022-09-25T06:31:05.087Z,12.30
2022-09-25T06:33:34.068Z,10.30
2022-09-25T06:36:02.555Z,11.60
2022-09-25T06:38:33.462Z,11.40
2022-09-25T06:41:02.278Z,12.90
2022-09-25T06:43:31.465Z,12.10
2022-09-25T06:46:02.648Z,12.80
2022-09-25T06:48:31.978Z,12.70
2022-09-25T06:51:00.861Z,11.20
2022-09-25T06:53:29.563Z,16.90
2022-09-25T06:55:59.791Z,12.50
2022-09-25T06:58:30.619Z,13.20
2022-09-25T07:00:59.425Z,13.40
2022-09-25T07:03:46.021Z,13.90
2022-09-25T07:06:26.634Z,10.50
2022-09-25T07:08:57.139Z,11.90
2022-09-25T07:11:28.296Z,12.60
2022-09-25T07:13:56.368Z,12.70
2022-09-25T07:16:30.571Z,12.20
2022-09-25T07:19:00.958Z,11.40
2022-09-25T07:21:32.669Z,10.70
2022-09-25T07:24:01.176Z,12.40
2022-09-25T07:26:33.948Z,11.20
2022-09-25T07:29:04.680Z,15.90
2022-09-25T07:31:34.747Z,11.90
2022-09-25T07:34:11.554Z,11.80
2022-09-25T07:36:42.809Z,14.10
2022-09-25T07:39:16.095Z,14.20
2022-09-25T07:41:46.992Z,12.60
2022-09-25T07:44:28.412Z,11.30
2022-09-25T07:46:58.237Z,11.10
2022-09-25T07:49:26.406Z,11.60
2022-09-25T07:51:54.643Z,8.70
2022-09-25T07:54:23.914Z,12.10
2022-09-25T07:56:51.950Z,10.30
2022-09-25T07:59:20.017Z,10.40
2022-09-25T08:01:53.451Z,13.10
2022-09-25T08:04:22.237Z,9.80
2022-09-25T08:06:50.434Z,9.10
2022-09-25T08:09:18.667Z,15.30
2022-09-25T08:11:46.838Z,11.40
2022-09-25T08:14:16.043Z,11.10
2022-09-25T08:16:44.808Z,14.00
2022-09-25T08:19:13.614Z,14.60
2022-09-25T08:21:41.844Z,12.20
2022-09-25T08:24:10.929Z,16.70
2022-09-25T08:26:39.079Z,14.70
2022-09-25T08:29:09.655Z,11.60
2022-09-25T08:31:38.001Z,10.90
2022-09-25T08:34:35.795Z,9.40
2022-09-25T08:36:58.132Z,10.50
2022-09-25T08:39:26.274Z,10.40
2022-09-25T08:41:56.338Z,10.20
2022-09-25T08:44:35.255Z,8.20
2022-09-25T08:47:24.287Z,10.80
2022-09-25T08:50:01.223Z,10.90
2022-09-25T08:52:35.180Z,10.90
2022-09-25T08:55:03.568Z,9.00
2022-09-25T08:57:45.354Z,10.80
2022-09-25T09:00:21.495Z,8.80
2022-09-25T09:02:59.113Z,9.00
2022-09-25T09:05:37.986Z,11.00
2022-09-25T09:08:09.020Z,11.50
2022-09-25T09:10:43.134Z,10.00
2022-09-25T09:13:23.395Z,8.50
2022-09-25T09:16:08.218Z,9.90
2022-09-25T09:18:41.653Z,8.60
2022-09-25T09:21:12.774Z,10.60
2022-09-25T09:23:43.651Z,10.70
2022-09-25T09:26:45.657Z,8.80
2022-09-25T09:29:19.707Z,12.00
2022-09-25T09:31:56.975Z,12.80
2022-09-25T09:35:04.682Z,13.40
2022-09-25T09:38:00.026Z,13.80
2022-09-25T09:40:37.224Z,9.40
2022-09-25T09:43:05.211Z,12.70
2022-09-25T09:45:53.181Z,10.40
2022-09-25T09:48:21.246Z,8.50
2022-09-25T09:50:52.900Z,10.30
2022-09-25T09:53:40.610Z,10.50
2022-09-25T09:56:26.575Z,12.10
2022-09-25T09:58:56.900Z,9.80
2022-09-25T10:01:40.893Z,9.40
2022-09-25T10:04:18.370Z,10.40
2022-09-25T10:07:01.363Z,9.50
2022-09-25T10:09:32.526Z,14.20
2022-09-25T10:12:10.585Z,12.40
2022-09-25T10:14:45.135Z,8.70
2022-09-25T10:17:15.372Z,10.70
2022-09-25T10:20:02.058Z,7.80
2022-09-25T10:22:53.042Z,9.00
2022-09-25T10:25:37.562Z,12.50
2022-09-25T10:28:25.696Z,8.20
2022-09-25T10:30:54.771Z,7.50
2022-09-25T10:33:25.775Z,6.50
2022-09-25T10:35:55.224Z,7.50
2022-09-25T10:38:39.187Z,9.60
2022-09-25T10:41:13.546Z,5.50
2022-09-25T10:44:02.454Z,7.30
2022-09-25T10:46:52.816Z,5.70
2022-09-25T10:49:42.643Z,8.00
2022-09-25T10:52:18.265Z,6.60
2022-09-25T10:54:46.542Z,9.30
2022-09-25T10:57:27.082Z,7.30
2022-09-25T10:59:55.407Z,5.40
2022-09-25T11:02:43.377Z,5.50
2022-09-25T11:05:18.865Z,8.60
2022-09-25T11:07:52.648Z,8.20
2022-09-25T11:10:31.124Z,7.80
2022-09-25T11:12:59.132Z,5.20
2022-09-25T11:15:28.007Z,5.60
2022-09-25T11:17:58.797Z,5.20
2022-09-25T11:20:30.929Z,5.20
2022-09-25T11:23:14.868Z,7.20
2022-09-25T11:25:57.873Z,5.20
2022-09-25T11:28:29.005Z,5.20
2022-09-25T11:31:14.271Z,6.50
2022-09-25T11:33:50.748Z,7.90
2022-09-25T11:36:35.084Z,6.10
2022-09-25T11:39:33.738Z,6.40
2022-09-25T11:42:54.142Z,6.70
2022-09-25T11:45:36.700Z,7.60
2022-09-25T11:48:21.401Z,9.10
2022-09-25T11:51:03.836Z,6.10
2022-09-25T11:54:25.676Z,8.00
2022-09-25T11:57:03.233Z,7.10
2022-09-25T11:59:44.131Z,6.70
2022-09-25T12:02:49.551Z,10.40
2022-09-25T12:05:45.575Z,9.20
2022-09-25T12:08:44.677Z,14.20
2022-09-25T12:11:22.136Z,9.30
2022-09-25T12:13:56.452Z,7.40
2022-09-25T12:16:41.005Z,7.10
2022-09-25T12:19:27.623Z,9.50
2022-09-25T12:22:11.548Z,7.60
2022-09-25T12:24:42.649Z,6.90
2022-09-25T12:27:47.680Z,6.50
2022-09-25T12:30:24.175Z,6.00
2022-09-25T12:33:10.610Z,9.00
2022-09-25T12:35:58.757Z,7.50
2022-09-25T12:39:01.856Z,13.50
2022-09-25T12:42:19.056Z,10.70
2022-09-25T12:44:56.507Z,10.80
2022-09-25T12:47:50.706Z,9.60
2022-09-25T12:50:50.308Z,8.70
2022-09-25T12:53:23.347Z,7.80
2022-09-25T12:56:13.528Z,5.50
2022-09-25T12:58:51.685Z,5.30
2022-09-25T13:01:46.866Z,7.10
2022-09-25T13:04:15.730Z,8.10
2022-09-25T13:07:04.195Z,8.60
2022-09-25T13:09:51.166Z,7.10
2022-09-25T13:12:33.349Z,8.20
2022-09-25T13:15:24.169Z,6.00
2022-09-25T13:17:52.929Z,7.70
2022-09-25T13:20:28.293Z,9.60
2022-09-25T13:23:17.223Z,12.10
2022-09-25T13:25:53.872Z,7.80
2022-09-25T13:28:26.690Z,5.20
2022-09-25T13:31:09.357Z,9.80
2022-09-25T13:33:52.897Z,12.20
2022-09-25T13:36:25.471Z,6.40
2022-09-25T13:39:22.388Z,10.00
2022-09-25T13:42:09.158Z,8.70
2022-09-25T13:44:43.725Z,6.90
2022-09-25T13:47:30.325Z,6.80
2022-09-25T13:50:04.385Z,7.70
2022-09-25T13:53:17.643Z,7.40
2022-09-25T13:55:48.859Z,5.80
2022-09-25T13:58:22.314Z,6.10
2022-09-25T14:00:57.730Z,7.10
2022-09-25T14:03:32.378Z,5.50
2022-09-25T14:06:02.333Z,6.40
2022-09-25T14:08:33.013Z,7.70
2022-09-25T14:11:07.799Z,8.00
2022-09-25T14:13:36.326Z,15.90
2022-09-25T14:16:24.522Z,8.60
2022-09-25T14:18:55.248Z,6.30
2022-09-25T14:21:26.573Z,7.60
2022-09-25T14:23:56.884Z,6.70
2022-09-25T14:26:29.120Z,5.10
2022-09-25T14:28:58.400Z,5.90
2022-09-25T14:31:32.828Z,5.60
2022-09-25T14:34:30.055Z,8.20
2022-09-25T14:37:24.577Z,6.00
2022-09-25T14:40:24.073Z,10.20
2022-09-25T14:43:01.681Z,6.50
2022-09-25T14:45:35.707Z,9.20
2022-09-25T14:48:10.231Z,8.30
2022-09-25T14:50:47.871Z,6.00
2022-09-25T14:53:40.318Z,6.00
2022-09-25T14:56:12.648Z,8.10
2022-09-25T14:58:50.239Z,11.10
2022-09-25T15:01:33.017Z,7.20
2022-09-25T15:04:08.186Z,5.80
2022-09-25T15:09:30.841Z,7.50
2022-09-25T15:11:58.935Z,11.10
2022-09-25T15:14:27.017Z,6.90
2022-09-25T15:17:13.492Z,6.80
2022-09-25T15:19:45.681Z,13.40
2022-09-25T15:22:21.935Z,12.10
2022-09-25T15:24:58.521Z,10.90
2022-09-25T15:27:28.695Z,7.80
2022-09-25T15:30:00.353Z,12.50
2022-09-25T15:32:39.562Z,10.50
2022-09-25T15:35:10.748Z,10.60
2022-09-25T15:37:39.484Z,7.70
2022-09-25T15:40:25.859Z,11.20
2022-09-25T15:42:55.097Z,10.50
2022-09-25T15:45:38.999Z,10.30
2022-09-25T15:48:24.971Z,8.80
2022-09-25T15:50:54.538Z,9.00
2022-09-25T15:53:30.896Z,12.30
2022-09-25T15:56:18.401Z,8.80
2022-09-25T15:58:54.136Z,11.90
2022-09-25T16:01:45.629Z,11.00
2022-09-25T16:04:39.044Z,11.80
2022-09-25T16:07:39.977Z,8.30
2022-09-25T16:10:14.679Z,12.00
2022-09-25T16:12:46.659Z,9.70
2022-09-25T16:15:26.641Z,9.00
2022-09-25T16:18:05.449Z,9.00
2022-09-25T16:20:39.599Z,9.30
2022-09-25T16:23:30.194Z,10.80
2022-09-25T16:25:59.127Z,9.20
2022-09-25T16:28:31.121Z,8.70
2022-09-25T16:31:03.126Z,11.00
2022-09-25T16:33:39.012Z,7.20
2022-09-25T16:36:18.168Z,8.40
2022-09-25T16:39:12.239Z,11.60
2022-09-25T16:41:46.824Z,10.40
2022-09-25T16:44:22.421Z,17.10
2022-09-25T16:46:54.403Z,15.70
2022-09-25T16:49:23.708Z,10.40
2022-09-25T16:51:55.155Z,10.60
2022-09-25T16:54:30.990Z,13.20
2022-09-25T16:57:02.393Z,12.00
2022-09-25T16:59:30.710Z,23.30
2022-09-25T17:02:25.549Z,10.00
2022-09-25T17:04:53.906Z,8.00
2022-09-25T17:07:22.494Z,26.10
2022-09-25T17:09:50.532Z,14.10
2022-09-25T17:12:21.772Z,12.50
2022-09-25T17:14:51.069Z,17.50
2022-09-25T17:17:21.922Z,13.00
2022-09-25T17:19:51.252Z,11.70
2022-09-25T17:22:19.479Z,9.90
2022-09-25T17:24:47.736Z,22.90
2022-09-25T17:27:16.729Z,11.40
2022-09-25T17:29:46.853Z,14.00
2022-09-25T17:32:17.618Z,13.20
2022-09-25T17:34:46.999Z,16.90
2022-09-25T17:37:15.663Z,14.70
2022-09-25T17:39:43.668Z,13.80
2022-09-25T17:42:12.671Z,11.30
2022-09-25T17:44:42.893Z,12.40
2022-09-25T17:47:12.683Z,15.60
2022-09-25T17:49:41.194Z,19.00
2022-09-25T17:52:15.791Z,14.00
2022-09-25T17:54:44.066Z,15.10
2022-09-25T17:57:12.088Z,15.40
2022-09-25T17:59:40.129Z,18.00
2022-09-25T18:02:16.110Z,14.50
2022-09-25T18:04:44.861Z,13.50
2022-09-25T18:07:14.536Z,17.00
2022-09-25T18:09:42.756Z,18.40
2022-09-25T18:12:10.736Z,16.10
2022-09-25T18:14:39.159Z,15.80
2022-09-25T18:17:07.608Z,11.90
2022-09-25T18:19:54.233Z,14.10
2022-09-25T18:22:25.557Z,18.10
2022-09-25T18:24:57.715Z,20.30
2022-09-25T18:27:29.168Z,24.80
2022-09-25T18:29:57.841Z,22.20
2022-09-25T18:32:25.951Z,15.50
2022-09-25T18:34:54.379Z,18.30
2022-09-25T18:37:22.492Z,22.40
2022-09-25T18:39:51.310Z,22.30
2022-09-25T18:42:19.320Z,25.20
2022-09-25T18:44:47.668Z,17.20
2022-09-25T18:47:15.653Z,23.20
2022-09-25T18:49:43.800Z,19.80
2022-09-25T18:52:11.970Z,22.50
2022-09-25T18:54:42.344Z,21.50
2022-09-25T18:57:12.729Z,19.20
2022-09-25T18:59:41.309Z,23.10
2022-09-25T19:02:23.007Z,19.10
2022-09-25T19:04:55.157Z,18.00
2022-09-25T19:07:25.950Z,21.60
2022-09-25T19:09:55.115Z,23.70
2022-09-25T19:12:23.199Z,23.10
2022-09-25T19:14:51.662Z,25.70
2022-09-25T19:17:19.967Z,26.80
2022-09-25T19:19:48.183Z,25.00
2022-09-25T19:22:19.127Z,25.70
2022-09-25T19:24:48.418Z,28.60
2022-09-25T19:27:17.618Z,21.50
2022-09-25T19:29:46.592Z,28.30
2022-09-25T19:32:17.011Z,31.80
2022-09-25T19:34:45.099Z,34.20
2022-09-25T19:37:13.366Z,28.20
2022-09-25T19:39:59.663Z,26.20
2022-09-25T19:42:28.622Z,33.50
2022-09-25T19:44:56.535Z,28.90
2022-09-25T19:47:24.498Z,27.80
2022-09-25T19:49:52.441Z,20.60
2022-09-25T19:52:22.419Z,31.90
2022-09-25T19:54:50.837Z,29.30
2022-09-25T19:57:18.806Z,27.80
2022-09-25T19:59:49.337Z,26.80
2022-09-25T20:02:17.792Z,27.20
2022-09-25T20:04:48.299Z,25.30
2022-09-25T20:07:17.149Z,32.00
2022-09-25T20:09:45.307Z,26.40
2022-09-25T20:12:13.309Z,31.10
2022-09-25T20:14:41.290Z,26.00
2022-09-25T20:17:10.298Z,27.10
2022-09-25T20:19:38.561Z,23.50
2022-09-25T20:22:06.890Z,29.50
2022-09-25T20:24:35.327Z,26.60
2022-09-25T20:27:03.424Z,26.10
2022-09-25T20:29:31.596Z,31.40
2022-09-25T20:31:59.651Z,24.50
2022-09-25T20:34:27.771Z,23.90
2022-09-25T20:36:55.927Z,19.00
2022-09-25T20:39:23.969Z,28.50
2022-09-25T20:41:51.842Z,24.10
2022-09-25T20:44:19.677Z,25.40
2022-09-25T20:46:47.796Z,27.50
2022-09-25T20:49:20.478Z,23.60
2022-09-25T20:51:48.457Z,22.30
2022-09-25T20:54:16.478Z,26.20
2022-09-25T20:56:45.545Z,26.90
2022-09-25T20:59:15.497Z,27.40
2022-09-25T21:01:43.585Z,28.20
2022-09-25T21:04:11.874Z,27.20
2022-09-25T21:06:41.645Z,27.90
2022-09-25T21:09:20.554Z,22.10
2022-09-25T21:11:49.033Z,25.80
2022-09-25T21:14:22.484Z,25.80
2022-09-25T21:16:51.775Z,28.40
2022-09-25T21:19:21.679Z,25.50
2022-09-25T21:21:50.498Z,28.50
2022-09-25T21:24:20.835Z,24.50
2022-09-25T21:26:50.415Z,23.00
2022-09-25T21:29:18.960Z,20.20
2022-09-25T21:31:50.401Z,23.10
2022-09-25T21:34:19.994Z,24.70
2022-09-25T21:36:48.914Z,20.20
2022-09-25T21:39:17.548Z,23.20
2022-09-25T21:41:46.345Z,22.40
2022-09-25T21:44:16.785Z,22.70
2022-09-25T21:46:45.220Z,21.20
2022-09-25T21:49:16.953Z,18.20
2022-09-25T21:51:46.570Z,23.30
2022-09-25T21:54:16.690Z,21.70
2022-09-25T21:56:45.038Z,17.30
2022-09-25T21:59:13.660Z,20.20
2022-09-25T22:01:42.657Z,17.10
2022-09-25T22:04:12.954Z,16.10
2022-09-25T22:06:44.589Z,18.20
2022-09-25T22:09:18.969Z,16.60
2022-09-25T22:11:48.143Z,17.20
2022-09-25T22:14:17.394Z,15.80
2022-09-25T22:16:48.126Z,15.40
2022-09-25T22:19:26.175Z,21.00
2022-09-25T22:21:56.252Z,16.40
2022-09-25T22:24:24.299Z,17.50
2022-09-25T22:26:53.888Z,19.30
2022-09-25T22:29:23.179Z,19.00
2022-09-25T22:31:52.079Z,15.70
2022-09-25T22:34:21.654Z,15.70
2022-09-25T22:36:55.016Z,19.60
2022-09-25T22:39:26.882Z,14.00
2022-09-25T22:41:56.350Z,18.80
2022-09-25T22:44:24.870Z,16.70
2022-09-25T22:46:52.757Z,16.50
2022-09-25T22:49:20.719Z,19.20
2022-09-25T22:51:48.558Z,15.80
2022-09-25T22:54:16.938Z,25.10
2022-09-25T22:56:44.810Z,18.50
2022-09-25T22:59:18.189Z,23.40
2022-09-25T23:01:50.299Z,21.40
2022-09-25T23:04:21.415Z,21.20
2022-09-25T23:06:50.704Z,28.50
2022-09-25T23:09:27.653Z,21.50
2022-09-25T23:11:57.239Z,17.40
2022-09-25T23:14:29.420Z,18.40
2022-09-25T23:16:58.261Z,24.90
2022-09-25T23:19:27.045Z,28.80
2022-09-25T23:21:55.692Z,24.00
2022-09-25T23:24:24.673Z,18.10
2022-09-25T23:26:54.281Z,20.90
2022-09-25T23:29:22.707Z,22.90
2022-09-25T23:31:51.744Z,18.20
2022-09-25T23:34:19.805Z,19.10
2022-09-25T23:36:48.209Z,18.30
2022-09-25T23:39:18.418Z,21.70
2022-09-25T23:41:46.535Z,18.90
2022-09-25T23:44:14.781Z,17.30
2022-09-25T23:46:44.139Z,19.30
2022-09-25T23:49:13.115Z,19.70
2022-09-25T23:51:41.584Z,19.50
2022-09-25T23:54:10.320Z,19.60
2022-09-25T23:56:39.328Z,19.90
2022-09-25T23:59:07.558Z,21.90
